Ventura, Iowa
Current Conditions -  °F | °C
As of 11:53 PM on Thursday 30 Oct 2014 (Local Time) from KMCW Reporting Station
Overcast Overcast  
Wind Chill: 27°   Ceiling: 4300
Heat Index: 38°   Visibility: 10mi
Dew Point: 24°   Wind: 24mph
Humidity: 57%   Direction: 350°N
Pressure: 30.29"   Gusts: 35mph
Location:  43.13°N, 93.48°W
Report Text: KMCW 310453Z AUTO 35021G30KT 10SM OVC043 03/M04 A3029 RMK AO2 PK WND 35030/0447 SLP258 T00331044 $
Loading
Personal Weather Stations






























Interactive Weather Map
Tropical Storm Tracking
New forecast layout! Learn more

10-Day Weather Forecast

Advertisements
Track Severe Weather on mobile